Time;durP1;ratioP1;P1;durP2;ratioP2;P2;SDS_P1;SDS_P2;PMS_P1;PMS_P2;Temp;Humidity;BMP_temperature;BMP_pressure;BME280_temperature;BME280_humidity;BME280_pressure;Samples;Min_cycle;Max_cycle;Signal;HPM_P1;HPM_P2
2022/08/05 00:04:51;;;;;;;3.95;2.00;;;22.40;99.90;;;;;;21018335;28;20050;-78
2022/08/05 00:14:52;;;;;;;7.37;2.30;;;22.30;99.90;;;;;;21019459;28;20063;-79
2022/08/05 00:24:52;;;;;;;2.63;2.00;;;22.40;99.90;;;;;;21018362;28;20052;-79
2022/08/05 00:34:53;;;;;;;4.80;2.13;;;22.40;99.90;;;;;;21016316;28;20040;-78
2022/08/05 00:55:21;;;;;;;4.97;2.45;;;22.60;99.90;;;;;;20827859;28;20065;-72
2022/08/05 01:05:23;;;;;;;5.13;2.30;;;22.00;99.90;;;;;;20827507;28;20048;-72
2022/08/05 01:15:27;;;;;;;;;;;22.10;99.90;;;;;;20827435;28;20118;-72
2022/08/05 01:25:48;;;;;;;4.93;2.58;;;21.90;99.90;;;;;;20826537;28;19928;-73
2022/08/05 01:35:50;;;;;;;5.80;3.13;;;21.90;99.90;;;;;;20826319;28;20048;-72
2022/08/05 01:45:54;;;;;;;4.65;2.85;;;21.50;99.90;;;;;;20824572;28;20116;-72
2022/08/05 01:55:59;;;;;;;5.20;2.20;;;21.10;99.90;;;;;;20824896;28;20047;-72
2022/08/05 02:06:04;;;;;;;4.22;2.42;;;21.70;99.90;;;;;;20824549;28;20057;-72
2022/08/05 02:16:15;;;;;;;8.00;2.72;;;21.40;99.90;;;;;;20823739;28;20033;-72
2022/08/05 02:26:22;;;;;;;3.87;2.40;;;21.00;99.90;;;;;;20823723;28;20515;-71
2022/08/05 02:36:25;;;;;;;5.72;2.85;;;20.50;99.90;;;;;;20823486;28;20496;-72
2022/08/05 02:46:27;;;;;;;3.38;2.42;;;20.90;99.90;;;;;;20824721;28;20466;-72
2022/08/05 02:56:29;;;;;;;3.15;2.38;;;20.50;99.90;;;;;;20823204;28;20095;-72
2022/08/05 03:06:30;;;;;;;4.43;2.30;;;21.00;99.90;;;;;;20837385;28;20037;-72
2022/08/05 03:16:31;;;;;;;5.25;2.50;;;21.30;99.90;;;;;;20842392;28;20044;-73
2022/08/05 03:26:32;;;;;;;2.80;2.20;;;22.50;99.90;;;;;;20835728;28;20072;-72
2022/08/05 03:36:33;;;;;;;3.38;2.38;;;22.60;99.90;;;;;;20834920;28;20041;-72
2022/08/05 03:46:34;;;;;;;3.27;2.23;;;22.80;99.90;;;;;;20834366;28;20171;-72
2022/08/05 03:56:40;;;;;;;4.30;1.98;;;22.90;99.90;;;;;;20834983;28;20037;-72
2022/08/05 04:06:42;;;;;;;10.77;2.85;;;22.70;99.90;;;;;;20832822;28;20048;-72
2022/08/05 04:16:43;;;;;;;3.75;2.10;;;22.30;99.90;;;;;;20864316;28;20056;-73
2022/08/05 04:26:44;;;;;;;4.25;2.45;;;22.10;99.90;;;;;;20850561;28;20075;-73
2022/08/05 04:36:45;;;;;;;4.10;2.37;;;21.90;99.90;;;;;;20833904;28;20033;-72
2022/08/05 04:46:45;;;;;;;2.87;1.77;;;21.80;99.90;;;;;;20829824;28;20049;-72
2022/08/05 04:56:46;;;;;;;3.20;1.97;;;22.00;99.90;;;;;;20828846;28;20033;-72
2022/08/05 05:06:47;;;;;;;3.25;1.92;;;22.30;99.90;;;;;;20828556;28;20096;-72
2022/08/05 05:16:48;;;;;;;5.50;2.53;;;22.40;99.90;;;;;;20827979;28;20034;-72
2022/08/05 05:26:49;;;;;;;3.10;2.37;;;22.60;99.90;;;;;;20832595;28;20041;-73
2022/08/05 05:36:50;;;;;;;2.40;2.00;;;22.80;99.90;;;;;;20842768;28;20395;-73
2022/08/05 05:46:50;;;;;;;2.67;1.97;;;23.20;99.90;;;;;;20824265;28;20033;-72
2022/08/05 05:56:51;;;;;;;6.47;2.40;;;23.80;99.90;;;;;;20825716;28;20037;-72
2022/08/05 06:06:52;;;;;;;4.80;2.13;;;23.90;99.90;;;;;;20844327;28;20069;-75
2022/08/05 06:16:53;;;;;;;4.87;2.40;;;24.10;99.90;;;;;;20824505;28;20288;-74
2022/08/05 06:26:53;;;;;;;;;;;24.80;99.90;;;;;;20824849;28;20268;-74
2022/08/05 06:36:54;;;;;;;3.13;2.00;;;25.30;99.90;;;;;;20832224;28;19912;-74
2022/08/05 06:46:55;;;;;;;3.05;1.75;;;26.00;99.90;;;;;;20899818;22;20055;-74
2022/08/05 06:56:56;;;;;;;4.15;1.77;;;26.90;99.90;;;;;;21079522;28;20046;-74
2022/08/05 07:06:57;;;;;;;4.43;1.52;;;27.90;99.90;;;;;;21094696;28;20035;-74
2022/08/05 07:17:02;;;;;;;2.55;1.45;;;28.10;99.90;;;;;;21086035;28;20036;-74
2022/08/05 07:27:03;;;;;;;2.15;1.23;;;28.40;99.90;;;;;;21086304;28;20040;-74
2022/08/05 07:37:04;;;;;;;1.60;1.20;;;28.60;99.90;;;;;;21066312;28;20126;-74
2022/08/05 07:47:05;;;;;;;2.15;1.25;;;28.80;99.90;;;;;;21083303;28;20702;-75
2022/08/05 07:57:05;;;;;;;5.35;1.63;;;29.00;99.90;;;;;;21082691;28;20047;-74
2022/08/05 08:07:06;;;;;;;2.35;1.67;;;29.30;99.90;;;;;;21081850;28;20043;-75
2022/08/05 08:17:10;;;;;;;5.03;2.10;;;30.70;99.90;;;;;;21081210;28;20040;-75
2022/08/05 08:27:11;;;;;;;4.75;1.90;;;30.30;99.90;;;;;;21080438;28;20437;-75
2022/08/05 08:37:12;;;;;;;3.75;2.03;;;29.90;99.90;;;;;;21084126;28;20054;-73
2022/08/05 08:47:14;;;;;;;4.75;2.25;;;29.90;99.90;;;;;;21086347;28;20044;-74
2022/08/05 08:57:15;;;;;;;2.75;2.08;;;28.90;99.90;;;;;;21059095;28;20039;-74
2022/08/05 09:07:16;;;;;;;4.47;2.15;;;29.90;99.90;;;;;;21058882;28;20143;-75
2022/08/05 09:17:18;;;;;;;5.20;2.03;;;30.70;99.90;;;;;;21076180;28;20032;-75
2022/08/05 09:27:33;;;;;;;3.28;2.10;;;30.70;99.90;;;;;;21076523;28;20502;-75
2022/08/05 09:37:34;;;;;;;8.63;2.13;;;32.00;99.90;;;;;;21075786;28;20036;-74
2022/08/05 09:47:40;;;;;;;3.70;1.80;;;33.50;99.60;;;;;;21074726;28;20136;-74
2022/08/05 09:57:44;;;;;;;2.55;1.75;;;32.00;99.70;;;;;;21077374;28;20578;-74
2022/08/05 10:07:58;;;;;;;5.65;1.77;;;32.10;99.90;;;;;;21077672;28;20114;-75
2022/08/05 10:18:14;;;;;;;6.75;2.03;;;33.00;99.20;;;;;;21091602;28;20555;-74
2022/08/05 10:28:16;;;;;;;7.40;2.60;;;33.70;98.30;;;;;;21095990;28;20040;-75
2022/08/05 10:38:22;;;;;;;5.70;2.10;;;32.20;98.20;;;;;;21090020;28;20032;-73
2022/08/05 10:48:33;;;;;;;4.18;1.83;;;34.50;99.30;;;;;;21087998;28;20130;-76
2022/08/05 10:58:34;;;;;;;5.80;2.10;;;34.40;96.90;;;;;;21012820;28;20075;-75
2022/08/05 11:08:35;;;;;;;9.20;1.58;;;35.00;96.80;;;;;;21004918;28;20442;-75
2022/08/05 11:18:36;;;;;;;2.13;1.48;;;36.10;94.80;;;;;;20987347;28;20040;-75
2022/08/05 11:28:43;;;;;;;2.95;1.45;;;36.30;94.50;;;;;;21001058;28;20036;-75
2022/08/05 11:38:43;;;;;;;3.45;2.05;;;36.20;93.10;;;;;;21000255;28;20406;-75
2022/08/05 11:48:44;;;;;;;5.80;1.57;;;34.80;94.00;;;;;;21000605;28;20068;-76
2022/08/05 11:58:47;;;;;;;2.65;1.33;;;35.00;94.20;;;;;;20999869;28;20050;-76
2022/08/05 12:08:51;;;;;;;3.83;1.60;;;36.60;92.20;;;;;;20999274;28;20044;-75
2022/08/05 12:18:53;;;;;;;4.85;1.55;;;37.30;91.60;;;;;;20997031;28;20040;-75
2022/08/05 12:28:54;;;;;;;3.72;1.55;;;35.50;92.70;;;;;;20996280;28;20036;-75
2022/08/05 12:38:57;;;;;;;5.03;1.60;;;35.40;92.10;;;;;;20996510;28;20398;-75
2022/08/05 12:49:01;;;;;;;2.45;1.90;;;33.70;95.70;;;;;;21015425;22;20056;-79
2022/08/05 12:59:14;;;;;;;2.65;1.60;;;34.10;96.00;;;;;;21026234;28;20509;-79
2022/08/05 13:09:14;;;;;;;3.90;1.60;;;34.80;94.90;;;;;;21015878;28;20047;-78
2022/08/05 13:19:15;;;;;;;7.32;1.85;;;34.50;93.50;;;;;;21005494;28;20064;-79
2022/08/05 13:29:18;;;;;;;2.85;1.50;;;33.80;94.10;;;;;;20911911;28;20308;-78
2022/08/05 13:39:19;;;;;;;5.32;1.95;;;34.00;94.00;;;;;;20873208;28;20132;-77
2022/08/05 13:49:20;;;;;;;2.67;1.63;;;35.60;93.00;;;;;;20818938;28;20492;-77
2022/08/05 13:59:22;;;;;;;2.55;1.65;;;35.40;92.70;;;;;;20876870;28;20438;-77
2022/08/05 14:09:23;;;;;;;3.42;1.98;;;35.00;91.50;;;;;;20822251;28;20061;-77
2022/08/05 14:19:24;;;;;;;4.47;1.70;;;36.60;89.60;;;;;;20831269;28;20124;-77
2022/08/05 14:29:24;;;;;;;2.50;2.03;;;36.00;90.30;;;;;;20887523;28;20713;-77
2022/08/05 14:39:25;;;;;;;3.43;1.70;;;36.20;90.20;;;;;;20888000;28;20840;-76
2022/08/05 14:49:26;;;;;;;3.50;1.75;;;36.00;89.50;;;;;;20882163;28;20319;-76
2022/08/05 14:59:28;;;;;;;3.35;2.15;;;35.80;89.90;;;;;;20817291;28;20511;-76
2022/08/05 15:09:28;;;;;;;4.45;1.92;;;35.40;90.40;;;;;;20828464;28;20087;-77
2022/08/05 15:19:29;;;;;;;2.77;2.03;;;35.30;90.20;;;;;;20839703;28;20487;-77
2022/08/05 15:29:30;;;;;;;2.58;2.00;;;36.20;88.60;;;;;;20831933;28;20284;-77
2022/08/05 15:39:31;;;;;;;3.33;1.63;;;35.10;90.40;;;;;;20816558;28;20495;-77
2022/08/05 15:49:32;;;;;;;2.90;1.88;;;35.60;88.90;;;;;;20859302;28;20284;-76
2022/08/05 15:59:34;;;;;;;5.43;1.88;;;35.40;90.00;;;;;;20814197;28;20045;-76
2022/08/05 16:09:35;;;;;;;6.63;1.75;;;34.90;90.40;;;;;;20794801;28;20802;-76
2022/08/05 16:19:36;;;;;;;2.42;2.10;;;34.80;90.30;;;;;;20863804;28;20161;-77
2022/08/05 16:29:37;;;;;;;4.47;1.90;;;34.30;90.80;;;;;;20819301;28;20087;-77
2022/08/05 16:39:37;;;;;;;5.50;1.90;;;34.10;90.90;;;;;;20825076;28;20041;-78
2022/08/05 16:49:38;;;;;;;4.07;1.90;;;33.80;91.50;;;;;;20816909;28;20053;-78
2022/08/05 16:59:39;;;;;;;6.47;1.80;;;33.70;91.50;;;;;;20886053;28;20291;-78
2022/08/05 17:09:40;;;;;;;7.25;1.83;;;33.40;91.60;;;;;;20907741;28;20045;-80
2022/08/05 17:19:43;;;;;;;3.63;1.80;;;32.70;92.80;;;;;;20855319;28;20049;-78
2022/08/05 17:29:44;;;;;;;3.65;1.92;;;31.90;93.80;;;;;;20864617;28;20122;-79
2022/08/05 17:39:45;;;;;;;4.80;1.88;;;31.10;95.60;;;;;;20870468;28;20064;-79
2022/08/05 17:49:46;;;;;;;3.85;2.35;;;30.80;96.60;;;;;;20862357;28;20055;-78
2022/08/05 17:59:47;;;;;;;5.85;2.03;;;30.30;97.60;;;;;;20868403;28;20180;-79
2022/08/05 18:09:48;;;;;;;3.45;2.20;;;30.00;98.00;;;;;;20894171;28;20111;-78
2022/08/05 18:19:48;;;;;;;8.55;2.03;;;29.40;98.90;;;;;;20852114;28;20128;-78
2022/08/05 18:29:49;;;;;;;3.13;2.17;;;29.50;98.70;;;;;;20898704;28;20095;-78
2022/08/05 18:39:50;;;;;;;3.35;2.55;;;29.70;98.40;;;;;;20873590;28;20071;-79
2022/08/05 19:00:11;;;;;;;5.03;2.22;;;28.70;99.90;;;;;;21067863;28;20098;-73
2022/08/05 19:10:11;;;;;;;3.53;2.10;;;28.00;99.90;;;;;;21060193;28;20047;-74
2022/08/05 19:20:13;;;;;;;6.57;2.00;;;27.70;99.90;;;;;;20923103;28;20040;-74
2022/08/05 19:30:15;;;;;;;4.65;2.17;;;27.60;99.90;;;;;;20981198;28;20072;-74
2022/08/05 19:40:16;;;;;;;12.02;2.72;;;27.60;99.90;;;;;;20979266;28;20036;-73
2022/08/05 19:50:16;;;;;;;;;;;25.60;99.90;;;;;;20980590;28;20059;-73
2022/08/05 20:00:17;;;;;;;5.80;3.20;;;24.00;99.90;;;;;;20978742;28;20483;-73
2022/08/05 20:10:18;;;;;;;8.27;3.33;;;22.90;99.90;;;;;;20978885;28;20052;-73
2022/08/05 20:20:19;;;;;;;12.57;3.55;;;22.50;99.90;;;;;;20959151;28;20047;-74
2022/08/05 20:30:20;;;;;;;5.43;2.60;;;22.20;99.90;;;;;;20976789;28;20041;-74
2022/08/05 20:40:21;;;;;;;7.77;3.10;;;21.20;99.90;;;;;;20957854;28;20044;-74
2022/08/05 20:50:22;;;;;;;4.07;2.40;;;20.60;99.90;;;;;;20974967;28;20049;-74
2022/08/05 21:00:23;;;;;;;5.57;2.75;;;20.50;99.90;;;;;;20976598;28;20552;-74
2022/08/05 21:10:24;;;;;;;8.57;3.07;;;20.40;99.90;;;;;;20981653;28;20040;-74
2022/08/05 21:20:26;;;;;;;16.50;3.20;;;20.20;99.90;;;;;;20972820;28;20088;-74
2022/08/05 21:30:27;;;;;;;3.40;2.10;;;20.20;99.90;;;;;;20971799;28;20116;-74
2022/08/05 21:40:28;;;;;;;4.47;2.37;;;20.20;99.90;;;;;;20971976;28;20044;-74
2022/08/05 21:50:29;;;;;;;5.78;2.72;;;20.70;99.90;;;;;;20972775;28;20048;-74
2022/08/05 22:00:29;;;;;;;4.93;2.70;;;20.80;99.90;;;;;;20954805;28;20086;-74
2022/08/05 22:10:30;;;;;;;5.30;2.53;;;20.70;99.90;;;;;;20967217;28;20060;-73
2022/08/05 22:20:31;;;;;;;3.63;2.27;;;20.90;99.90;;;;;;20974947;28;20036;-73
2022/08/05 22:30:32;;;;;;;10.27;3.23;;;20.70;99.90;;;;;;20974391;28;20028;-73
2022/08/05 22:40:33;;;;;;;;;;;20.40;99.90;;;;;;20971157;28;20039;-72
2022/08/05 22:50:34;;;;;;;5.47;3.07;;;20.70;99.90;;;;;;20936228;28;19913;-73
2022/08/05 23:00:35;;;;;;;5.10;2.60;;;20.50;99.90;;;;;;20917651;28;20128;-74
2022/08/05 23:10:36;;;;;;;5.50;2.90;;;20.50;99.90;;;;;;20969891;28;20039;-73
2022/08/05 23:20:37;;;;;;;6.60;2.80;;;20.60;99.90;;;;;;20972853;28;20036;-73
2022/08/05 23:30:38;;;;;;;3.90;2.70;;;20.40;99.90;;;;;;21001207;28;20036;-73
2022/08/05 23:40:39;;;;;;;9.40;3.08;;;20.50;99.90;;;;;;21001322;28;20040;-74
2022/08/05 23:50:40;;;;;;;5.00;2.70;;;20.30;99.90;;;;;;21001889;28;20036;-74
